createdAt,value
2018-04-09T00:00:48.382Z,45.80
2018-04-09T00:03:15.123Z,45.50
2018-04-09T00:05:41.979Z,46.00
2018-04-09T00:08:08.989Z,46.00
2018-04-09T00:10:36.503Z,46.20
2018-04-09T00:13:03.442Z,46.00
2018-04-09T00:15:30.239Z,46.10
2018-04-09T00:17:57.138Z,46.30
2018-04-09T00:20:24.100Z,46.10
2018-04-09T00:22:51.643Z,46.10
2018-04-09T00:25:18.461Z,46.00
2018-04-09T00:27:45.455Z,45.90
2018-04-09T00:30:12.368Z,46.70
2018-04-09T00:32:39.213Z,46.10
2018-04-09T00:35:06.101Z,45.90
2018-04-09T00:37:33.000Z,45.30
2018-04-09T00:39:59.824Z,45.90
2018-04-09T00:42:27.528Z,46.50
2018-04-09T00:44:54.517Z,46.00
2018-04-09T00:47:21.288Z,46.00
2018-04-09T00:49:48.036Z,46.00
2018-04-09T00:52:15.055Z,46.10
2018-04-09T00:54:41.920Z,46.50
2018-04-09T00:57:08.867Z,45.80
2018-04-09T00:59:35.596Z,46.10
2018-04-09T01:02:03.489Z,45.90
2018-04-09T01:04:30.424Z,46.10
2018-04-09T01:06:57.487Z,45.80
2018-04-09T01:09:24.323Z,45.60
2018-04-09T01:11:51.170Z,45.90
2018-04-09T01:14:18.221Z,45.90
2018-04-09T01:16:45.173Z,46.50
2018-04-09T01:19:12.129Z,45.90
2018-04-09T01:21:38.973Z,45.70
2018-04-09T01:24:05.774Z,45.70
2018-04-09T01:26:33.320Z,45.60
2018-04-09T01:29:00.954Z,45.70
2018-04-09T01:31:27.804Z,45.80
2018-04-09T01:33:54.710Z,45.80
2018-04-09T01:36:21.529Z,45.50
2018-04-09T01:38:48.337Z,45.80
2018-04-09T01:41:15.088Z,46.00
2018-04-09T01:43:41.940Z,45.70
2018-04-09T01:46:08.741Z,45.40
2018-04-09T01:48:35.634Z,45.50
2018-04-09T01:51:02.484Z,45.40
2018-04-09T01:53:29.259Z,45.50
2018-04-09T01:55:56.173Z,46.00
2018-04-09T01:58:23.027Z,45.60
2018-04-09T02:00:49.792Z,45.90
2018-04-09T02:03:16.727Z,45.70
2018-04-09T02:05:43.494Z,45.60
2018-04-09T02:08:11.137Z,45.40
2018-04-09T02:10:37.865Z,45.40
2018-04-09T02:13:04.648Z,45.50
2018-04-09T02:15:31.517Z,45.40
2018-04-09T02:17:59.247Z,45.50
2018-04-09T02:20:25.941Z,45.50
2018-04-09T02:22:53.020Z,45.30
2018-04-09T02:25:19.894Z,45.40
2018-04-09T02:27:46.747Z,45.30
2018-04-09T02:30:13.511Z,45.50
2018-04-09T02:32:41.117Z,45.30
2018-04-09T02:35:08.101Z,45.40
2018-04-09T02:37:35.015Z,45.40
2018-04-09T02:40:01.841Z,45.30
2018-04-09T02:42:29.468Z,45.30
2018-04-09T02:44:56.423Z,45.40
2018-04-09T02:47:23.156Z,45.40
2018-04-09T02:49:50.010Z,45.50
2018-04-09T02:52:16.949Z,46.20
2018-04-09T02:54:43.765Z,45.40
2018-04-09T02:57:10.552Z,45.50
2018-04-09T02:59:37.336Z,45.50
2018-04-09T03:02:04.906Z,45.60
2018-04-09T03:04:32.488Z,45.40
2018-04-09T03:06:59.393Z,45.40
2018-04-09T03:09:26.289Z,45.40
2018-04-09T03:11:53.177Z,45.70
2018-04-09T03:14:20.017Z,45.60
2018-04-09T03:16:46.874Z,45.60
2018-04-09T03:19:13.615Z,45.60
2018-04-09T03:21:40.667Z,45.60
2018-04-09T03:24:07.515Z,45.60
2018-04-09T03:26:34.366Z,45.50
2018-04-09T03:29:02.450Z,45.30
2018-04-09T03:31:29.151Z,45.60
2018-04-09T03:33:55.957Z,45.50
2018-04-09T03:36:22.845Z,45.60
2018-04-09T03:38:49.727Z,45.60
2018-04-09T03:41:16.586Z,45.50
2018-04-09T03:43:43.327Z,45.40
2018-04-09T03:46:10.385Z,45.60
2018-04-09T03:48:37.324Z,45.30
2018-04-09T03:51:04.276Z,45.60
2018-04-09T03:53:31.149Z,45.50
2018-04-09T03:55:58.001Z,45.50
2018-04-09T03:58:24.995Z,45.40
2018-04-09T04:00:51.877Z,46.30
2018-04-09T04:03:18.833Z,45.70
2018-04-09T04:05:46.315Z,45.40
2018-04-09T04:08:13.236Z,45.70
2018-04-09T04:10:40.013Z,45.40
2018-04-09T04:13:07.861Z,45.30
2018-04-09T04:19:05.471Z,45.30
2018-04-09T04:21:44.809Z,45.30
2018-04-09T04:24:12.854Z,45.40
2018-04-09T04:26:40.597Z,45.30
2018-04-09T04:29:07.469Z,45.20
2018-04-09T04:31:35.315Z,45.30
2018-04-09T04:34:02.253Z,45.30
2018-04-09T04:36:29.217Z,45.30
2018-04-09T04:38:56.014Z,45.50
2018-04-09T04:41:22.823Z,45.60
2018-04-09T04:43:49.695Z,45.50
2018-04-09T04:46:17.227Z,45.00
2018-04-09T04:48:44.274Z,45.50
2018-04-09T04:51:11.042Z,45.50
2018-04-09T04:53:37.965Z,45.70
2018-04-09T04:56:05.172Z,45.60
2018-04-09T04:58:32.008Z,45.60
2018-04-09T05:00:59.637Z,45.70
2018-04-09T05:03:26.592Z,45.70
2018-04-09T05:05:53.642Z,45.70
2018-04-09T05:08:20.432Z,45.80
2018-04-09T05:10:47.254Z,45.80
2018-04-09T05:13:14.224Z,45.20
2018-04-09T05:15:41.664Z,45.50
2018-04-09T05:18:09.302Z,45.80
2018-04-09T05:20:36.095Z,45.90
2018-04-09T05:23:02.952Z,45.80
2018-04-09T05:25:29.836Z,45.50
2018-04-09T05:27:56.629Z,45.40
2018-04-09T05:30:24.079Z,45.80
2018-04-09T05:32:50.909Z,45.80
2018-04-09T05:35:17.783Z,45.80
2018-04-09T05:37:45.321Z,45.90
2018-04-09T05:40:12.024Z,45.30
2018-04-09T05:42:38.844Z,45.10
2018-04-09T05:45:06.577Z,46.00
2018-04-09T05:47:33.543Z,45.80
2018-04-09T05:50:00.485Z,45.60
2018-04-09T05:52:27.464Z,45.40
2018-04-09T05:54:55.091Z,45.80
2018-04-09T05:57:22.063Z,45.80
2018-04-09T05:59:48.892Z,45.60
2018-04-09T06:02:15.740Z,45.60
2018-04-09T06:04:42.559Z,45.40
2018-04-09T06:07:09.679Z,45.30
2018-04-09T06:09:37.261Z,46.00
2018-04-09T06:12:04.169Z,45.20
2018-04-09T06:14:31.055Z,45.10
2018-04-09T06:16:58.607Z,45.00
2018-04-09T06:19:26.243Z,44.90
2018-04-09T06:21:52.924Z,45.00
2018-04-09T06:24:20.650Z,45.20
2018-04-09T06:26:47.433Z,45.10
2018-04-09T06:29:15.263Z,45.00
2018-04-09T06:31:42.220Z,45.10
2018-04-09T06:34:09.062Z,45.20
2018-04-09T06:36:36.032Z,45.20
2018-04-09T06:39:02.948Z,45.20
2018-04-09T06:41:29.772Z,45.10
2018-04-09T06:43:56.758Z,45.10
2018-04-09T06:46:23.793Z,45.10
2018-04-09T06:48:50.601Z,45.00
2018-04-09T06:51:18.238Z,42.80
2018-04-09T06:53:45.028Z,42.80
2018-04-09T06:56:11.908Z,43.10
2018-04-09T06:58:38.981Z,43.80
2018-04-09T07:01:06.189Z,43.80
2018-04-09T07:03:32.977Z,43.90
2018-04-09T07:05:59.698Z,43.60
2018-04-09T07:08:26.533Z,43.90
2018-04-09T07:10:53.421Z,44.40
2018-04-09T07:13:20.374Z,43.90
2018-04-09T07:15:47.240Z,44.60
2018-04-09T07:18:14.054Z,44.20
2018-04-09T07:20:40.930Z,45.40
2018-04-09T07:23:07.864Z,45.30
2018-04-09T07:25:34.719Z,45.10
2018-04-09T07:28:01.500Z,45.40
2018-04-09T07:30:29.043Z,44.90
2018-04-09T07:32:55.761Z,45.00
2018-04-09T07:35:22.522Z,44.90
2018-04-09T07:37:49.364Z,44.90
2018-04-09T07:40:16.212Z,45.00
2018-04-09T07:42:43.059Z,45.80
2018-04-09T07:45:09.935Z,46.50
2018-04-09T07:47:36.782Z,46.70
2018-04-09T07:50:03.701Z,46.00
2018-04-09T07:52:30.480Z,45.60
2018-04-09T07:54:57.333Z,44.90
2018-04-09T07:57:25.102Z,44.50
2018-04-09T07:59:51.935Z,44.80
2018-04-09T08:02:18.965Z,44.40
2018-04-09T08:04:45.760Z,44.50
2018-04-09T08:07:13.484Z,45.00
2018-04-09T08:09:40.173Z,45.00
2018-04-09T08:12:07.805Z,47.00
2018-04-09T08:14:34.861Z,46.80
2018-04-09T08:17:01.826Z,45.70
2018-04-09T08:19:28.921Z,44.30
2018-04-09T08:21:56.453Z,43.90
2018-04-09T08:24:24.072Z,44.80
2018-04-09T08:26:50.808Z,44.10
2018-04-09T08:29:17.686Z,43.80
2018-04-09T08:31:44.536Z,43.70
2018-04-09T08:34:11.561Z,43.80
2018-04-09T08:36:38.450Z,45.30
2018-04-09T08:39:05.382Z,45.30
2018-04-09T08:41:32.221Z,44.70
2018-04-09T08:43:59.165Z,44.80
2018-04-09T08:46:26.120Z,45.30
2018-04-09T08:48:52.976Z,45.60
2018-04-09T08:51:19.725Z,46.00
2018-04-09T08:53:46.531Z,46.00
2018-04-09T08:56:13.333Z,46.20
2018-04-09T08:58:40.367Z,46.40
2018-04-09T09:01:07.319Z,46.70
2018-04-09T09:03:34.159Z,46.90
2018-04-09T09:06:00.900Z,46.60
2018-04-09T09:08:27.729Z,46.60
2018-04-09T09:10:54.611Z,46.60
2018-04-09T09:13:21.451Z,46.90
2018-04-09T09:15:48.217Z,46.80
2018-04-09T09:18:16.574Z,46.70
2018-04-09T09:20:43.474Z,46.70
2018-04-09T09:23:11.016Z,43.80
2018-04-09T09:25:37.889Z,43.80
2018-04-09T09:28:05.405Z,44.80
2018-04-09T09:30:32.256Z,44.80
2018-04-09T09:32:59.210Z,44.90
2018-04-09T09:35:25.945Z,45.30
2018-04-09T09:37:52.804Z,45.10
2018-04-09T09:40:19.542Z,45.30
2018-04-09T09:42:46.809Z,45.50
2018-04-09T09:45:13.578Z,45.40
2018-04-09T09:47:40.435Z,45.30
2018-04-09T09:50:08.060Z,45.10
2018-04-09T09:52:35.113Z,45.60
2018-04-09T09:55:01.776Z,44.90
2018-04-09T09:57:28.700Z,44.90
2018-04-09T09:59:55.457Z,43.20
2018-04-09T10:02:22.608Z,42.20
2018-04-09T10:04:49.461Z,43.30
2018-04-09T10:07:16.412Z,43.90
2018-04-09T10:09:43.360Z,44.70
2018-04-09T10:12:10.090Z,45.10
2018-04-09T10:14:36.952Z,45.40
2018-04-09T10:17:03.890Z,45.70
2018-04-09T10:19:30.850Z,45.90
2018-04-09T10:21:57.913Z,45.90
2018-04-09T10:24:25.111Z,46.10
2018-04-09T10:26:52.884Z,46.20
2018-04-09T10:29:20.502Z,46.40
2018-04-09T10:31:47.342Z,46.40
2018-04-09T10:34:14.120Z,46.10
2018-04-09T10:36:41.791Z,46.40
2018-04-09T10:39:09.398Z,46.40
2018-04-09T10:41:36.279Z,46.50
2018-04-09T10:44:03.160Z,46.40
2018-04-09T10:46:30.682Z,46.60
2018-04-09T10:48:57.633Z,46.50
2018-04-09T10:51:24.492Z,46.60
2018-04-09T10:53:51.244Z,46.70
2018-04-09T10:56:18.301Z,46.70
2018-04-09T10:58:45.177Z,46.70
2018-04-09T11:01:12.751Z,46.70
2018-04-09T11:03:39.506Z,46.80
2018-04-09T11:06:06.393Z,46.80
2018-04-09T11:08:33.235Z,46.90
2018-04-09T11:11:00.193Z,47.00
2018-04-09T11:13:27.062Z,47.00
2018-04-09T11:15:53.893Z,47.10
2018-04-09T11:18:20.721Z,47.10
2018-04-09T11:20:47.586Z,47.30
2018-04-09T11:23:14.425Z,47.30
2018-04-09T11:25:41.277Z,47.30
2018-04-09T11:28:08.196Z,47.20
2018-04-09T11:30:35.211Z,47.10
2018-04-09T11:33:02.730Z,47.40
2018-04-09T11:35:29.593Z,47.30
2018-04-09T11:37:56.350Z,47.40
2018-04-09T11:40:23.192Z,47.30
2018-04-09T11:42:50.247Z,47.50
2018-04-09T11:45:17.194Z,47.40
2018-04-09T11:47:43.858Z,47.40
2018-04-09T11:50:10.707Z,47.30
2018-04-09T11:52:37.578Z,47.40
2018-04-09T11:55:05.306Z,48.10
2018-04-09T11:57:32.159Z,47.30
2018-04-09T11:59:59.006Z,47.40
2018-04-09T12:02:25.949Z,47.40
2018-04-09T12:04:52.897Z,47.50
2018-04-09T12:07:19.614Z,47.60
2018-04-09T12:09:46.603Z,47.60
2018-04-09T12:12:13.444Z,47.60
2018-04-09T12:14:40.288Z,47.60
2018-04-09T12:17:07.131Z,47.70
2018-04-09T12:19:33.895Z,47.40
2018-04-09T12:22:00.731Z,47.80
2018-04-09T12:24:27.525Z,47.60
2018-04-09T12:26:55.139Z,47.60
2018-04-09T12:29:21.950Z,47.50
2018-04-09T12:31:48.840Z,47.70
2018-04-09T12:34:15.554Z,47.50
2018-04-09T12:36:42.545Z,47.50
2018-04-09T12:39:09.482Z,47.70
2018-04-09T12:41:37.093Z,47.60
2018-04-09T12:44:04.828Z,47.60
2018-04-09T12:46:31.677Z,47.50
2018-04-09T12:48:58.531Z,47.80
2018-04-09T12:51:25.378Z,47.90
2018-04-09T12:53:52.423Z,47.80
2018-04-09T12:56:19.191Z,47.70
2018-04-09T12:58:46.310Z,47.70
2018-04-09T13:01:13.162Z,47.20
2018-04-09T13:03:40.007Z,47.60
2018-04-09T13:06:06.849Z,47.70
2018-04-09T13:08:33.709Z,47.80
2018-04-09T13:11:00.654Z,47.80
2018-04-09T13:13:27.630Z,47.80
2018-04-09T13:15:54.556Z,47.80
2018-04-09T13:18:21.320Z,47.70
2018-04-09T13:20:48.155Z,47.80
2018-04-09T13:23:14.992Z,47.90
2018-04-09T13:25:41.854Z,47.90
2018-04-09T13:28:08.791Z,47.90
2018-04-09T13:30:35.578Z,47.60
2018-04-09T13:33:03.203Z,47.90
2018-04-09T13:35:30.122Z,47.80
2018-04-09T13:37:56.994Z,48.00
2018-04-09T13:40:23.850Z,47.40
2018-04-09T13:42:50.808Z,47.60
2018-04-09T13:45:17.660Z,47.70
2018-04-09T13:47:44.574Z,47.70
2018-04-09T13:50:12.098Z,48.10
2018-04-09T13:52:39.680Z,48.20
2018-04-09T13:55:07.302Z,48.00
2018-04-09T13:57:34.244Z,48.10
2018-04-09T14:00:01.192Z,48.00
2018-04-09T14:02:28.046Z,47.80
2018-04-09T14:04:54.888Z,47.60
2018-04-09T14:07:21.735Z,47.90
2018-04-09T14:09:49.111Z,47.60
2018-04-09T14:12:15.983Z,47.80
2018-04-09T14:14:43.616Z,47.90
2018-04-09T14:17:10.469Z,48.00
2018-04-09T14:19:37.411Z,48.00
2018-04-09T14:22:04.263Z,48.00
2018-04-09T14:24:31.111Z,47.90
2018-04-09T14:26:57.975Z,47.60
2018-04-09T14:29:24.911Z,48.10
2018-04-09T14:31:51.762Z,47.40
2018-04-09T14:34:18.570Z,47.90
2018-04-09T14:36:45.568Z,47.00
2018-04-09T14:39:12.522Z,47.60
2018-04-09T14:41:39.455Z,47.60
2018-04-09T14:44:06.301Z,47.60
2018-04-09T14:46:33.156Z,47.00
2018-04-09T14:48:59.936Z,47.50
2018-04-09T14:51:27.661Z,47.20
2018-04-09T14:53:54.516Z,47.20
2018-04-09T14:56:21.463Z,47.70
2018-04-09T14:58:48.312Z,46.70
2018-04-09T15:01:15.192Z,47.00
2018-04-09T15:03:42.115Z,44.30
2018-04-09T15:06:08.975Z,44.30
2018-04-09T15:08:36.013Z,44.60
2018-04-09T15:11:02.958Z,45.10
2018-04-09T15:13:29.942Z,45.20
2018-04-09T15:15:56.778Z,45.00
2018-04-09T15:18:23.834Z,44.90
2018-04-09T15:20:50.786Z,44.90
2018-04-09T15:23:17.549Z,44.90
2018-04-09T15:25:45.179Z,44.50
2018-04-09T15:28:12.043Z,44.90
2018-04-09T15:30:38.874Z,44.80
2018-04-09T15:33:05.725Z,44.80
2018-04-09T15:35:32.613Z,44.90
2018-04-09T15:38:00.178Z,44.90
2018-04-09T15:40:27.819Z,44.90
2018-04-09T15:42:54.870Z,44.90
2018-04-09T15:45:21.604Z,44.30
2018-04-09T15:47:48.732Z,44.60
2018-04-09T15:50:15.455Z,44.70
2018-04-09T15:52:42.456Z,44.20
2018-04-09T15:55:09.239Z,44.70
2018-04-09T15:57:36.915Z,44.90
2018-04-09T16:00:03.715Z,45.00
2018-04-09T16:02:30.811Z,44.50
2018-04-09T16:04:58.435Z,43.90
2018-04-09T16:07:38.484Z,43.90
2018-04-09T16:10:05.342Z,44.90
2018-04-09T16:12:32.252Z,44.10
2018-04-09T16:14:59.218Z,45.10
2018-04-09T16:17:26.083Z,44.70
2018-04-09T16:19:53.029Z,44.60
2018-04-09T16:22:19.984Z,44.60
2018-04-09T16:24:46.826Z,44.50
2018-04-09T16:27:13.784Z,44.80
2018-04-09T16:29:41.402Z,44.40
2018-04-09T16:32:08.391Z,44.50
2018-04-09T16:34:35.172Z,44.30
2018-04-09T16:37:02.098Z,44.20
2018-04-09T16:39:29.157Z,44.20
2018-04-09T16:41:55.983Z,44.60
2018-04-09T16:44:22.836Z,44.10
2018-04-09T16:46:49.885Z,43.80
2018-04-09T16:49:16.691Z,44.10
2018-04-09T16:51:43.563Z,44.10
2018-04-09T16:54:10.382Z,44.50
2018-04-09T16:56:37.285Z,44.00
2018-04-09T16:59:04.051Z,44.20
2018-04-09T17:01:31.087Z,44.50
2018-04-09T17:03:57.962Z,44.80
2018-04-09T17:06:24.777Z,44.70
2018-04-09T17:08:51.514Z,44.70
2018-04-09T17:11:18.424Z,44.70
2018-04-09T17:13:45.317Z,44.50
2018-04-09T17:16:12.091Z,44.20
2018-04-09T17:18:39.135Z,44.20
2018-04-09T17:21:06.015Z,44.40
2018-04-09T17:23:33.555Z,44.40
2018-04-09T17:26:00.323Z,44.60
2018-04-09T17:28:27.950Z,43.50
2018-04-09T17:30:54.804Z,43.40
2018-04-09T17:33:21.870Z,44.20
2018-04-09T17:35:48.754Z,44.30
2018-04-09T17:38:15.576Z,44.00
2018-04-09T17:40:43.105Z,43.80
2018-04-09T17:43:09.788Z,43.80
2018-04-09T17:45:37.427Z,44.40
2018-04-09T17:48:04.378Z,44.40
2018-04-09T17:50:31.448Z,44.70
2018-04-09T17:52:58.423Z,44.50
2018-04-09T17:55:25.893Z,44.90
2018-04-09T17:57:52.728Z,44.80
2018-04-09T18:00:20.349Z,44.70
2018-04-09T18:02:47.304Z,44.70
2018-04-09T18:05:14.233Z,44.30
2018-04-09T18:07:41.049Z,44.50
2018-04-09T18:10:08.148Z,44.30
2018-04-09T18:12:35.141Z,44.40
2018-04-09T18:15:02.917Z,43.20
2018-04-09T18:17:29.761Z,43.00
2018-04-09T18:19:57.358Z,44.30
2018-04-09T18:22:24.259Z,44.30
2018-04-09T18:24:51.285Z,44.30
2018-04-09T18:27:18.145Z,44.00
2018-04-09T18:29:44.905Z,44.50
2018-04-09T18:32:11.977Z,44.40
2018-04-09T18:34:39.721Z,44.50
2018-04-09T18:37:06.661Z,44.40
2018-04-09T18:39:33.496Z,44.20
2018-04-09T18:42:00.341Z,44.30
2018-04-09T18:44:27.131Z,44.00
2018-04-09T18:46:54.907Z,44.40
2018-04-09T18:49:22.514Z,44.20
2018-04-09T18:51:49.384Z,43.70
2018-04-09T18:54:16.340Z,44.00
2018-04-09T18:56:43.110Z,44.00
2018-04-09T18:59:11.353Z,43.50
2018-04-09T19:01:38.402Z,43.50
2018-04-09T19:04:05.448Z,44.70
2018-04-09T19:06:32.313Z,44.60
2018-04-09T19:08:59.264Z,44.50
2018-04-09T19:11:26.308Z,44.70
2018-04-09T19:13:53.156Z,44.10
2018-04-09T19:16:20.206Z,44.00
2018-04-09T19:18:47.161Z,44.60
2018-04-09T19:21:14.069Z,45.00
2018-04-09T19:23:41.060Z,45.40
2018-04-09T19:26:07.929Z,45.70
2018-04-09T19:28:35.211Z,45.40
2018-04-09T19:31:02.935Z,45.30
2018-04-09T19:33:29.767Z,45.30
2018-04-09T19:36:02.615Z,44.70
2018-04-09T19:38:36.287Z,45.20
2018-04-09T19:41:03.145Z,45.20
2018-04-09T19:43:30.693Z,45.00
2018-04-09T19:45:57.592Z,45.00
2018-04-09T19:48:24.553Z,44.80
2018-04-09T19:50:51.433Z,44.70
2018-04-09T19:53:18.308Z,44.40
2018-04-09T19:55:45.878Z,44.60
2018-04-09T19:58:13.343Z,45.00
2018-04-09T20:00:41.001Z,45.10
2018-04-09T20:03:08.518Z,43.80
2018-04-09T20:05:35.389Z,43.80
2018-04-09T20:08:02.190Z,44.50
2018-04-09T20:10:29.000Z,44.50
2018-04-09T20:12:55.827Z,45.10
2018-04-09T20:15:23.623Z,45.30
2018-04-09T20:17:50.470Z,45.80
2018-04-09T20:20:17.490Z,46.00
2018-04-09T20:22:44.342Z,46.20
2018-04-09T20:25:11.205Z,46.30
2018-04-09T20:27:38.052Z,46.50
2018-04-09T20:30:04.886Z,46.50
2018-04-09T20:32:31.730Z,46.50
2018-04-09T20:34:58.512Z,46.60
2018-04-09T20:37:25.553Z,46.80
2018-04-09T20:39:52.380Z,47.30
2018-04-09T20:42:19.254Z,46.60
2018-04-09T20:44:46.389Z,46.60
2018-04-09T20:47:13.191Z,46.80
2018-04-09T20:49:40.011Z,46.80
2018-04-09T20:52:06.858Z,46.20
2018-04-09T20:54:33.670Z,46.50
2018-04-09T20:57:00.532Z,47.80
2018-04-09T20:59:27.332Z,47.10
2018-04-09T21:01:54.324Z,46.70
2018-04-09T21:04:21.103Z,47.00
2018-04-09T21:06:48.021Z,46.80
2018-04-09T21:09:14.886Z,47.50
2018-04-09T21:11:41.813Z,47.00
2018-04-09T21:14:08.603Z,46.60
2018-04-09T21:16:36.053Z,47.10
2018-04-09T21:19:02.894Z,47.10
2018-04-09T21:21:29.718Z,47.00
2018-04-09T21:23:56.565Z,47.00
2018-04-09T21:26:23.515Z,47.10
2018-04-09T21:28:50.466Z,47.00
2018-04-09T21:31:17.255Z,47.10
2018-04-09T21:33:44.781Z,47.30
2018-04-09T21:36:11.629Z,47.10
2018-04-09T21:38:38.575Z,47.30
2018-04-09T21:41:05.422Z,47.40
2018-04-09T21:43:32.265Z,47.00
2018-04-09T21:45:59.011Z,46.90
2018-04-09T21:48:25.794Z,47.20
2018-04-09T21:50:52.547Z,47.30
2018-04-09T21:53:20.179Z,47.50
2018-04-09T21:55:47.006Z,47.20
2018-04-09T21:58:13.817Z,47.50
2018-04-09T22:00:41.364Z,47.60
2018-04-09T22:03:08.287Z,47.60
2018-04-09T22:05:35.233Z,47.30
2018-04-09T22:08:02.082Z,47.50
2018-04-09T22:10:29.036Z,47.20
2018-04-09T22:12:55.912Z,47.50
2018-04-09T22:15:22.706Z,47.40
2018-04-09T22:17:49.402Z,47.60
2018-04-09T22:20:16.326Z,47.10
2018-04-09T22:22:43.195Z,47.10
2018-04-09T22:25:10.119Z,47.40
2018-04-09T22:27:36.880Z,47.40
2018-04-09T22:30:03.811Z,47.40
2018-04-09T22:32:30.662Z,47.60
2018-04-09T22:34:57.466Z,47.30
2018-04-09T22:37:25.084Z,47.00
2018-04-09T22:39:51.821Z,47.50
2018-04-09T22:42:18.675Z,47.10
2018-04-09T22:44:45.616Z,47.30
2018-04-09T22:47:12.471Z,47.40
2018-04-09T22:49:39.515Z,47.60
2018-04-09T22:52:06.286Z,47.20
2018-04-09T22:54:33.103Z,47.60
2018-04-09T22:56:59.962Z,47.60
2018-04-09T22:59:26.675Z,47.30
2018-04-09T23:01:53.483Z,47.30
2018-04-09T23:04:20.415Z,47.50
2018-04-09T23:06:47.276Z,46.70
2018-04-09T23:09:14.032Z,47.40
2018-04-09T23:11:40.734Z,47.60
2018-04-09T23:14:07.690Z,47.30
2018-04-09T23:16:34.644Z,47.50
2018-04-09T23:19:01.495Z,47.30
2018-04-09T23:21:28.545Z,47.00
2018-04-09T23:23:55.344Z,47.30
2018-04-09T23:26:22.844Z,47.70
2018-04-09T23:28:49.633Z,47.60
2018-04-09T23:31:16.549Z,47.80
2018-04-09T23:33:43.403Z,47.60
2018-04-09T23:36:10.210Z,47.10
2018-04-09T23:38:36.918Z,47.20
2018-04-09T23:41:03.738Z,47.60
2018-04-09T23:43:30.571Z,47.60
2018-04-09T23:45:57.367Z,47.40
2018-04-09T23:48:24.386Z,47.30
2018-04-09T23:50:51.442Z,48.10
2018-04-09T23:53:18.394Z,47.40
2018-04-09T23:55:45.236Z,47.60
2018-04-09T23:58:12.228Z,47.20
